Table Rock, Nebraska
Current Conditions -  °F | °C
As of 5:53 PM on Friday 24 Oct 2014 (Local Time) from KFNB Reporting Station
Clear Clear  
Wind Chill: 26°   Ceiling: Unl
Heat Index: 27°   Visibility: 10mi
Dew Point: 18°   Wind: 6mph
Humidity: 62%   Direction: 220°SW
Pressure: 29.89"   Gusts: NA
Location:  40.18°N, 96.1°W
Report Text: KFNB 242253Z AUTO 22005KT 10SM CLR 26/18 A2989 RMK AO2 SLP116 T02560178
Loading
Personal Weather Stations






























Interactive Weather Map
Tropical Storm Tracking
New forecast layout! Learn more

10-Day Weather Forecast

Advertisements
Track Severe Weather on mobile